Challis, Idaho
Current Conditions -  °F | °C
As of 12:48 AM on Sunday 23 Nov 2014 (Local Time) from KLLJ Reporting Station
Light Snow Light Snow  
Wind Chill: 19°   Ceiling: 1000
Heat Index: 30°   Visibility: 1mi
Dew Point: 26°   Wind: 16mph
Humidity: 85%   Direction: 310°NW
Pressure: 29.91"   Gusts: NA
Location:  44.5°N, 114.23°W
Report Text: KLLJ 230748Z AUTO 31014KT 1SM -SN BR VV010 M01/M03 A2991 RMK AO2 PK WND 01034/0714 SNB14 P0006 T10111033 $
Loading
Personal Weather Stations






























Interactive Weather Map New forecast layout! Learn more

10-Day Weather Forecast

Advertisements
Track Severe Weather on mobile